Time;durP1;ratioP1;P1;durP2;ratioP2;P2;SDS_P1;SDS_P2;PMS_P1;PMS_P2;Temp;Humidity;BMP_temperature;BMP_pressure;BME280_temperature;BME280_humidity;BME280_pressure;Samples;Min_cycle;Max_cycle;Signal;HPM_P1;HPM_P2
2024/05/02 00:00:21;;;;;;;11.27;10.77;;;;;;;;;;5374733;26;20022;-66
2024/05/02 00:02:46;;;;;;;11.35;10.85;;;;;;;;;;5395068;26;19999;-68
2024/05/02 00:05:11;;;;;;;11.38;10.88;;;;;;;;;;5410781;26;19995;-67
2024/05/02 00:07:37;;;;;;;11.80;11.30;;;;;;;;;;5399128;26;19991;-67
2024/05/02 00:10:03;;;;;;;10.98;10.48;;;;;;;;;;5413633;26;20379;-69
2024/05/02 00:12:29;;;;;;;11.05;10.55;;;;;;;;;;5409116;26;20459;-68
2024/05/02 00:14:55;;;;;;;11.50;11.00;;;;;;;;;;5409158;26;20004;-68
2024/05/02 00:17:20;;;;;;;11.65;11.15;;;;;;;;;;5382150;26;20014;-67
2024/05/02 00:19:46;;;;;;;11.52;11.02;;;;;;;;;;5390845;26;20036;-67
2024/05/02 00:22:11;;;;;;;11.10;10.60;;;;;;;;;;5411342;26;20557;-67
2024/05/02 00:24:37;;;;;;;11.48;10.98;;;;;;;;;;5406646;26;20479;-68
2024/05/02 00:27:02;;;;;;;11.40;10.90;;;;;;;;;;5401829;26;20129;-67
2024/05/02 00:29:28;;;;;;;11.35;10.85;;;;;;;;;;5373848;26;20453;-67
2024/05/02 00:31:53;;;;;;;11.50;11.00;;;;;;;;;;5376295;26;20026;-67
2024/05/02 00:34:19;;;;;;;11.18;10.68;;;;;;;;;;5390773;26;19996;-67
2024/05/02 00:36:45;;;;;;;11.27;10.77;;;;;;;;;;5411899;26;20333;-66
2024/05/02 00:39:11;;;;;;;10.82;10.32;;;;;;;;;;5406446;26;19992;-67
2024/05/02 00:41:36;;;;;;;11.00;10.50;;;;;;;;;;5407544;26;19996;-67
2024/05/02 00:44:02;;;;;;;11.10;10.60;;;;;;;;;;5406480;26;20077;-67
2024/05/02 00:46:27;;;;;;;11.30;10.80;;;;;;;;;;5422566;26;19995;-67
2024/05/02 00:48:53;;;;;;;11.43;10.93;;;;;;;;;;5411768;26;20014;-67
2024/05/02 00:51:19;;;;;;;11.23;10.73;;;;;;;;;;5409901;26;20014;-68
2024/05/02 00:53:45;;;;;;;11.63;11.13;;;;;;;;;;5400946;26;20394;-68
2024/05/02 00:56:10;;;;;;;11.20;10.70;;;;;;;;;;5404106;26;20048;-67
2024/05/02 00:58:36;;;;;;;11.30;10.80;;;;;;;;;;5409840;26;19996;-67
2024/05/02 01:01:01;;;;;;;11.50;11.00;;;;;;;;;;5407946;26;20460;-68
2024/05/02 01:03:29;;;;;;;11.50;11.00;;;;;;;;;;5411687;26;20464;-67
2024/05/02 01:05:55;;;;;;;11.10;10.60;;;;;;;;;;5407907;26;20085;-68
2024/05/02 01:08:20;;;;;;;11.15;10.65;;;;;;;;;;5418098;26;19995;-68
2024/05/02 01:10:46;;;;;;;11.10;10.60;;;;;;;;;;5410701;26;20006;-68
2024/05/02 01:13:11;;;;;;;10.98;10.48;;;;;;;;;;5412489;26;20071;-68
2024/05/02 01:15:39;;;;;;;10.93;10.43;;;;;;;;;;5413097;26;20064;-68
2024/05/02 01:18:04;;;;;;;11.07;10.57;;;;;;;;;;5408294;26;20475;-68
2024/05/02 01:20:30;;;;;;;11.43;10.93;;;;;;;;;;5397135;26;20011;-68
2024/05/02 01:22:55;;;;;;;11.50;11.00;;;;;;;;;;5404178;26;19999;-68
2024/05/02 01:25:21;;;;;;;11.07;10.57;;;;;;;;;;5414862;26;20000;-68
2024/05/02 01:27:46;;;;;;;11.35;10.85;;;;;;;;;;5408794;26;20012;-68
2024/05/02 01:30:12;;;;;;;11.10;10.60;;;;;;;;;;5398354;26;19999;-67
2024/05/02 01:32:37;;;;;;;10.90;10.40;;;;;;;;;;5385180;26;20050;-67
2024/05/02 01:35:03;;;;;;;11.13;10.63;;;;;;;;;;5377135;26;20003;-66
2024/05/02 01:37:28;;;;;;;11.20;10.70;;;;;;;;;;5409895;26;20004;-68
2024/05/02 01:39:53;;;;;;;11.40;10.90;;;;;;;;;;5400675;26;20366;-68
2024/05/02 01:42:19;;;;;;;11.00;10.50;;;;;;;;;;5413956;26;20007;-67
2024/05/02 01:44:44;;;;;;;11.15;10.65;;;;;;;;;;5404799;26;19996;-68
2024/05/02 01:47:10;;;;;;;11.00;10.50;;;;;;;;;;5413242;26;20459;-68
2024/05/02 01:49:35;;;;;;;11.20;10.70;;;;;;;;;;5415049;26;20004;-68
2024/05/02 01:52:00;;;;;;;11.13;10.63;;;;;;;;;;5408820;26;20421;-68
2024/05/02 01:54:26;;;;;;;11.15;10.65;;;;;;;;;;5379239;26;20568;-68
2024/05/02 01:56:51;;;;;;;11.20;10.70;;;;;;;;;;5413496;26;20063;-67
2024/05/02 01:59:17;;;;;;;10.95;10.45;;;;;;;;;;5414564;26;19999;-67
2024/05/02 02:01:42;;;;;;;10.90;10.40;;;;;;;;;;5407124;26;20475;-68
2024/05/02 02:04:09;;;;;;;10.82;10.32;;;;;;;;;;5417315;26;20004;-68
2024/05/02 02:06:34;;;;;;;10.98;10.48;;;;;;;;;;5413795;26;20003;-68
2024/05/02 02:08:59;;;;;;;11.52;11.02;;;;;;;;;;5413379;26;20429;-68
2024/05/02 02:11:25;;;;;;;11.30;10.80;;;;;;;;;;5418536;26;20027;-68
2024/05/02 02:13:50;;;;;;;11.20;10.70;;;;;;;;;;5401049;26;20107;-68
2024/05/02 02:16:16;;;;;;;11.30;10.80;;;;;;;;;;5383153;26;20003;-68
2024/05/02 02:18:41;;;;;;;11.23;10.73;;;;;;;;;;5406425;26;20627;-68
2024/05/02 02:21:07;;;;;;;10.93;10.43;;;;;;;;;;5416516;26;20677;-68
2024/05/02 02:23:33;;;;;;;11.25;10.75;;;;;;;;;;5404813;26;20000;-68
2024/05/02 02:25:58;;;;;;;11.15;10.65;;;;;;;;;;5409240;26;20007;-68
2024/05/02 02:28:25;;;;;;;11.00;10.50;;;;;;;;;;5407519;26;20430;-68
2024/05/02 02:30:51;;;;;;;11.35;10.85;;;;;;;;;;5412363;26;20014;-68
2024/05/02 02:33:16;;;;;;;10.73;10.23;;;;;;;;;;5373732;26;20043;-68
2024/05/02 02:35:42;;;;;;;10.95;10.45;;;;;;;;;;5406862;26;20473;-68
2024/05/02 02:38:07;;;;;;;10.80;10.30;;;;;;;;;;5413486;26;20483;-68
2024/05/02 02:40:32;;;;;;;10.90;10.40;;;;;;;;;;5379279;26;20034;-68
2024/05/02 02:42:58;;;;;;;11.00;10.50;;;;;;;;;;5410168;26;20537;-67
2024/05/02 02:45:23;;;;;;;11.27;10.77;;;;;;;;;;5412239;26;20749;-68
2024/05/02 02:47:49;;;;;;;10.90;10.40;;;;;;;;;;5396714;26;20452;-68
2024/05/02 02:50:14;;;;;;;10.75;10.25;;;;;;;;;;5409938;26;20456;-68
2024/05/02 02:52:39;;;;;;;10.82;10.32;;;;;;;;;;5405010;26;19996;-68
2024/05/02 02:55:07;;;;;;;11.02;10.52;;;;;;;;;;5408834;26;20000;-67
2024/05/02 02:57:32;;;;;;;10.73;10.23;;;;;;;;;;5416682;26;20054;-68
2024/05/02 02:59:57;;;;;;;11.10;10.60;;;;;;;;;;5413201;26;20003;-67
2024/05/02 03:02:23;;;;;;;10.80;10.30;;;;;;;;;;5412698;26;20003;-67
2024/05/02 03:04:48;;;;;;;10.80;10.30;;;;;;;;;;5406668;26;20000;-67
2024/05/02 03:07:14;;;;;;;10.93;10.43;;;;;;;;;;5415007;26;20570;-67
2024/05/02 03:09:40;;;;;;;10.75;10.25;;;;;;;;;;5396930;26;20003;-67
2024/05/02 03:12:06;;;;;;;10.98;10.48;;;;;;;;;;5406417;26;20063;-67
2024/05/02 03:14:31;;;;;;;10.80;10.30;;;;;;;;;;5427920;26;19991;-67
2024/05/02 03:16:56;;;;;;;11.10;10.60;;;;;;;;;;5372149;26;20014;-67
2024/05/02 03:19:22;;;;;;;10.85;10.35;;;;;;;;;;5413610;26;19995;-67
2024/05/02 03:21:47;;;;;;;11.30;10.80;;;;;;;;;;5397866;26;19991;-68
2024/05/02 03:24:13;;;;;;;11.05;10.55;;;;;;;;;;5404849;26;20011;-67
2024/05/02 03:26:38;;;;;;;10.93;10.43;;;;;;;;;;5410959;26;20080;-67
2024/05/02 03:29:04;;;;;;;11.10;10.60;;;;;;;;;;5412727;26;20077;-67
2024/05/02 03:31:29;;;;;;;11.30;10.80;;;;;;;;;;5386631;26;19995;-67
2024/05/02 03:33:55;;;;;;;11.50;11.00;;;;;;;;;;5411284;26;19999;-68
2024/05/02 03:36:20;;;;;;;11.68;11.18;;;;;;;;;;5406053;26;20007;-68
2024/05/02 03:38:46;;;;;;;11.55;11.05;;;;;;;;;;5414234;26;20025;-68
2024/05/02 03:41:12;;;;;;;11.90;11.40;;;;;;;;;;5387212;26;20464;-67
2024/05/02 03:43:38;;;;;;;11.63;11.13;;;;;;;;;;5399161;26;19999;-68
2024/05/02 03:46:07;;;;;;;11.70;11.20;;;;;;;;;;5409188;26;19996;-67
2024/05/02 03:48:32;;;;;;;11.82;11.32;;;;;;;;;;5410563;26;20000;-68
2024/05/02 03:50:57;;;;;;;11.95;11.45;;;;;;;;;;5405142;26;20343;-69
2024/05/02 03:53:23;;;;;;;12.10;11.60;;;;;;;;;;5382138;26;20011;-68
2024/05/02 03:55:48;;;;;;;11.77;11.27;;;;;;;;;;5400704;26;20000;-68
2024/05/02 03:58:14;;;;;;;11.98;11.48;;;;;;;;;;5381709;26;20007;-68
2024/05/02 04:00:39;;;;;;;12.15;11.65;;;;;;;;;;5410413;26;20454;-68
2024/05/02 04:03:04;;;;;;;12.15;11.65;;;;;;;;;;5376290;26;19996;-68
2024/05/02 04:05:30;;;;;;;12.32;11.80;;;;;;;;;;5394945;26;20337;-67
2024/05/02 04:07:55;;;;;;;12.60;12.00;;;;;;;;;;5397042;26;20036;-68
2024/05/02 04:10:21;;;;;;;12.45;11.88;;;;;;;;;;5409541;26;20457;-67
2024/05/02 04:12:46;;;;;;;12.63;12.02;;;;;;;;;;5406936;26;20057;-67
2024/05/02 04:15:11;;;;;;;12.55;11.95;;;;;;;;;;5406640;26;20065;-67
2024/05/02 04:17:37;;;;;;;12.80;12.20;;;;;;;;;;5403200;26;19992;-68
2024/05/02 04:20:04;;;;;;;12.40;11.88;;;;;;;;;;5402311;26;20507;-67
2024/05/02 04:22:29;;;;;;;12.63;12.02;;;;;;;;;;5399192;26;20011;-68
2024/05/02 04:24:54;;;;;;;12.63;12.02;;;;;;;;;;5403296;26;20515;-69
2024/05/02 04:27:20;;;;;;;12.63;12.02;;;;;;;;;;5377513;26;19999;-70
2024/05/02 04:29:45;;;;;;;13.00;12.40;;;;;;;;;;5413110;26;19996;-71
2024/05/02 04:32:10;;;;;;;13.00;12.40;;;;;;;;;;5413417;26;19996;-70
2024/05/02 04:34:36;;;;;;;12.73;12.13;;;;;;;;;;5410809;26;19996;-70
2024/05/02 04:37:01;;;;;;;12.65;12.05;;;;;;;;;;5364600;26;20500;-71
2024/05/02 04:39:27;;;;;;;13.02;12.43;;;;;;;;;;5387591;26;20000;-70
2024/05/02 04:41:52;;;;;;;13.20;12.60;;;;;;;;;;5374506;26;19999;-73
2024/05/02 04:44:17;;;;;;;13.00;12.40;;;;;;;;;;5402226;26;20035;-73
2024/05/02 04:46:43;;;;;;;12.98;12.38;;;;;;;;;;5408312;26;20480;-73
2024/05/02 04:49:08;;;;;;;12.90;12.30;;;;;;;;;;5383903;26;20450;-72
2024/05/02 04:51:34;;;;;;;12.90;12.30;;;;;;;;;;5406211;26;19996;-73
2024/05/02 04:54:00;;;;;;;12.82;12.23;;;;;;;;;;5416213;26;20023;-73
2024/05/02 04:56:25;;;;;;;13.13;12.52;;;;;;;;;;5407977;26;20076;-73
2024/05/02 04:58:51;;;;;;;13.10;12.50;;;;;;;;;;5403045;26;20497;-72
2024/05/02 05:01:16;;;;;;;13.07;12.48;;;;;;;;;;5385784;26;20014;-74
2024/05/02 05:03:41;;;;;;;13.02;12.43;;;;;;;;;;5410611;26;20464;-73
2024/05/02 05:06:07;;;;;;;13.15;12.55;;;;;;;;;;5406457;26;19992;-73
2024/05/02 05:08:32;;;;;;;12.90;12.30;;;;;;;;;;5412145;26;19995;-70
2024/05/02 05:10:59;;;;;;;12.75;12.15;;;;;;;;;;5406904;26;20064;-72
2024/05/02 05:13:24;;;;;;;13.10;12.50;;;;;;;;;;5410964;26;20495;-72
2024/05/02 05:15:50;;;;;;;12.95;12.35;;;;;;;;;;5399707;26;19995;-72
2024/05/02 05:18:16;;;;;;;13.02;12.43;;;;;;;;;;5393941;26;20014;-73
2024/05/02 05:20:42;;;;;;;12.77;12.18;;;;;;;;;;5383579;26;20016;-72
2024/05/02 05:23:11;;;;;;;12.93;12.32;;;;;;;;;;5409836;26;19996;-72
2024/05/02 05:25:36;;;;;;;12.85;12.25;;;;;;;;;;5400635;26;20003;-69
2024/05/02 05:28:02;;;;;;;13.18;12.57;;;;;;;;;;5399283;26;20427;-68
2024/05/02 05:30:27;;;;;;;13.13;12.52;;;;;;;;;;5405788;26;20004;-66
2024/05/02 05:32:53;;;;;;;13.05;12.45;;;;;;;;;;5386582;26;20484;-68
2024/05/02 05:35:18;;;;;;;12.93;12.32;;;;;;;;;;5411268;26;20014;-68
2024/05/02 05:37:43;;;;;;;13.05;12.45;;;;;;;;;;5384002;26;20073;-68
2024/05/02 05:40:09;;;;;;;12.90;12.30;;;;;;;;;;5384316;26;20455;-68
2024/05/02 05:42:34;;;;;;;12.93;12.32;;;;;;;;;;5413980;26;20046;-68
2024/05/02 05:45:00;;;;;;;12.95;12.35;;;;;;;;;;5413270;26;20481;-68
2024/05/02 05:47:25;;;;;;;13.30;12.70;;;;;;;;;;5404178;26;20403;-67
2024/05/02 05:49:51;;;;;;;13.18;12.57;;;;;;;;;;5416945;26;20007;-67
2024/05/02 05:52:16;;;;;;;12.85;12.25;;;;;;;;;;5408653;26;20000;-67
2024/05/02 05:54:41;;;;;;;12.98;12.38;;;;;;;;;;5383738;26;20008;-68
2024/05/02 05:57:07;;;;;;;12.77;12.18;;;;;;;;;;5413540;26;19995;-68
2024/05/02 05:59:32;;;;;;;12.98;12.38;;;;;;;;;;5408240;26;20007;-67
2024/05/02 06:01:58;;;;;;;12.80;12.20;;;;;;;;;;5410221;26;20114;-68
2024/05/02 06:04:23;;;;;;;13.02;12.43;;;;;;;;;;5412854;26;20360;-68
2024/05/02 06:06:49;;;;;;;13.00;12.40;;;;;;;;;;5402217;26;20015;-68
2024/05/02 06:09:17;;;;;;;13.25;12.65;;;;;;;;;;5393186;26;20071;-68
2024/05/02 06:11:44;;;;;;;13.27;12.68;;;;;;;;;;5377681;26;20007;-68
2024/05/02 06:14:09;;;;;;;12.77;12.18;;;;;;;;;;5423200;26;20008;-68
2024/05/02 06:16:35;;;;;;;13.10;12.50;;;;;;;;;;5363482;26;20478;-68
2024/05/02 06:19:00;;;;;;;12.88;12.27;;;;;;;;;;5407469;26;19991;-68
2024/05/02 06:21:26;;;;;;;13.18;12.57;;;;;;;;;;5402796;26;19992;-69
2024/05/02 06:23:52;;;;;;;13.10;12.50;;;;;;;;;;5409871;26;19999;-74
2024/05/02 06:26:17;;;;;;;13.05;12.45;;;;;;;;;;5351586;26;20003;-75
2024/05/02 06:28:43;;;;;;;13.20;12.60;;;;;;;;;;5403850;26;20011;-73
2024/05/02 06:31:08;;;;;;;13.43;12.82;;;;;;;;;;5411764;26;20000;-74
2024/05/02 06:33:34;;;;;;;13.45;12.85;;;;;;;;;;5387825;26;20362;-73
2024/05/02 06:35:59;;;;;;;13.20;12.60;;;;;;;;;;5409018;26;20011;-73
2024/05/02 06:38:24;;;;;;;13.07;12.48;;;;;;;;;;5399197;26;20082;-73
2024/05/02 06:40:51;;;;;;;12.63;12.02;;;;;;;;;;5413763;26;20405;-74
2024/05/02 06:43:16;;;;;;;13.15;12.55;;;;;;;;;;5398534;26;20080;-74
2024/05/02 06:45:41;;;;;;;13.00;12.40;;;;;;;;;;5406432;26;20007;-73
2024/05/02 06:48:07;;;;;;;12.77;12.18;;;;;;;;;;5384129;26;20007;-73
2024/05/02 06:50:32;;;;;;;13.00;12.40;;;;;;;;;;5408453;26;20002;-74
2024/05/02 06:52:58;;;;;;;12.90;12.30;;;;;;;;;;5413353;26;20456;-73
2024/05/02 06:55:23;;;;;;;13.00;12.40;;;;;;;;;;5402687;26;20573;-70
2024/05/02 06:57:48;;;;;;;12.95;12.35;;;;;;;;;;5394962;26;20008;-71
2024/05/02 07:00:14;;;;;;;12.95;12.35;;;;;;;;;;5374522;26;20301;-73
2024/05/02 07:02:39;;;;;;;12.70;12.10;;;;;;;;;;5414954;26;20461;-71
2024/05/02 07:05:05;;;;;;;13.00;12.40;;;;;;;;;;5409921;26;20028;-71
2024/05/02 07:07:30;;;;;;;12.93;12.32;;;;;;;;;;5408993;26;20015;-71
2024/05/02 07:09:56;;;;;;;13.20;12.60;;;;;;;;;;5404440;26;20022;-71
2024/05/02 07:12:22;;;;;;;12.88;12.27;;;;;;;;;;5407232;26;20004;-71
2024/05/02 07:14:47;;;;;;;13.00;12.40;;;;;;;;;;5411367;26;20541;-72
2024/05/02 07:17:13;;;;;;;13.05;12.45;;;;;;;;;;5412954;26;20004;-72
2024/05/02 07:19:38;;;;;;;12.73;12.13;;;;;;;;;;5382998;26;20003;-71
2024/05/02 07:22:04;;;;;;;12.82;12.23;;;;;;;;;;5420509;26;20011;-71
2024/05/02 07:24:29;;;;;;;12.98;12.38;;;;;;;;;;5422108;26;19995;-71
2024/05/02 07:26:55;;;;;;;13.00;12.40;;;;;;;;;;5414758;26;20512;-72
2024/05/02 07:29:23;;;;;;;13.00;12.40;;;;;;;;;;5383098;26;20615;-71
2024/05/02 07:31:48;;;;;;;13.13;12.52;;;;;;;;;;5401124;26;20464;-71
2024/05/02 07:34:14;;;;;;;13.25;12.65;;;;;;;;;;5383499;26;19999;-72
2024/05/02 07:36:39;;;;;;;13.15;12.55;;;;;;;;;;5414472;26;19995;-72
2024/05/02 07:39:05;;;;;;;13.10;12.50;;;;;;;;;;5387200;26;20333;-71
2024/05/02 07:41:30;;;;;;;13.10;12.50;;;;;;;;;;5383452;26;20000;-71
2024/05/02 07:43:56;;;;;;;12.90;12.30;;;;;;;;;;5414811;26;19995;-71
2024/05/02 07:46:21;;;;;;;12.98;12.38;;;;;;;;;;5387115;26;20512;-71
2024/05/02 07:48:48;;;;;;;12.98;12.38;;;;;;;;;;5382821;26;20457;-71
2024/05/02 07:51:13;;;;;;;12.80;12.20;;;;;;;;;;5413779;26;19999;-72
2024/05/02 07:53:39;;;;;;;12.55;11.95;;;;;;;;;;5413601;26;19999;-71
2024/05/02 07:56:06;;;;;;;12.75;12.15;;;;;;;;;;5415701;26;20541;-71
2024/05/02 07:58:31;;;;;;;12.75;12.15;;;;;;;;;;5413452;26;20018;-72
2024/05/02 08:00:56;;;;;;;12.85;12.25;;;;;;;;;;5395552;26;20250;-71
2024/05/02 08:03:22;;;;;;;12.63;12.02;;;;;;;;;;5413208;26;20003;-70
2024/05/02 08:05:47;;;;;;;12.77;12.18;;;;;;;;;;5413470;26;20508;-70
2024/05/02 08:08:13;;;;;;;12.68;12.07;;;;;;;;;;5414559;26;20010;-70
2024/05/02 08:10:38;;;;;;;12.70;12.10;;;;;;;;;;5413910;26;19995;-69
2024/05/02 08:13:11;;;;;;;12.68;12.07;;;;;;;;;;5435157;26;20057;-71
2024/05/02 08:15:37;;;;;;;12.73;12.13;;;;;;;;;;5413960;26;20312;-71
2024/05/02 08:18:06;;;;;;;12.57;11.98;;;;;;;;;;5382844;26;20492;-71
2024/05/02 08:20:31;;;;;;;12.73;12.13;;;;;;;;;;5413985;26;20010;-70
2024/05/02 08:22:57;;;;;;;12.70;12.10;;;;;;;;;;5414106;26;20003;-71
2024/05/02 08:25:22;;;;;;;12.60;12.00;;;;;;;;;;5382817;26;20459;-70
2024/05/02 08:27:47;;;;;;;12.82;12.23;;;;;;;;;;5413254;26;20431;-70
2024/05/02 08:30:13;;;;;;;12.45;11.90;;;;;;;;;;5410006;26;20076;-70
2024/05/02 08:32:38;;;;;;;12.60;12.00;;;;;;;;;;5413815;26;20003;-71
2024/05/02 08:35:04;;;;;;;12.60;12.00;;;;;;;;;;5413289;26;19996;-70
2024/05/02 08:37:29;;;;;;;12.30;11.80;;;;;;;;;;5413149;26;20035;-69
2024/05/02 08:39:55;;;;;;;12.57;11.98;;;;;;;;;;5403452;26;20007;-70
2024/05/02 08:42:20;;;;;;;12.23;11.73;;;;;;;;;;5413397;26;20460;-69
2024/05/02 08:44:47;;;;;;;12.55;11.95;;;;;;;;;;5413897;26;20000;-70
2024/05/02 08:47:13;;;;;;;12.35;11.85;;;;;;;;;;5414829;26;19999;-69
2024/05/02 08:49:40;;;;;;;12.38;11.88;;;;;;;;;;5413613;26;20008;-70
2024/05/02 08:52:05;;;;;;;12.25;11.75;;;;;;;;;;5413903;26;20003;-70
2024/05/02 08:54:31;;;;;;;12.32;11.82;;;;;;;;;;5413720;26;19999;-70
2024/05/02 08:56:58;;;;;;;12.30;11.80;;;;;;;;;;5413567;26;20007;-70
2024/05/02 08:59:29;;;;;;;12.57;11.98;;;;;;;;;;5412098;26;20456;-70
2024/05/02 09:01:55;;;;;;;12.35;11.85;;;;;;;;;;5413038;26;20049;-71
2024/05/02 09:04:21;;;;;;;12.55;11.98;;;;;;;;;;5414142;26;19995;-71
2024/05/02 09:06:50;;;;;;;12.60;12.00;;;;;;;;;;5412993;26;20456;-71
2024/05/02 09:09:15;;;;;;;12.65;12.05;;;;;;;;;;5412734;26;19995;-71
2024/05/02 09:11:54;;;;;;;12.60;12.00;;;;;;;;;;5394511;26;20335;-71
2024/05/02 09:14:21;;;;;;;12.70;12.10;;;;;;;;;;5420766;26;20008;-72
2024/05/02 09:16:47;;;;;;;12.65;12.05;;;;;;;;;;5412695;26;20014;-70
2024/05/02 09:19:12;;;;;;;12.45;11.90;;;;;;;;;;5413481;26;19996;-71
2024/05/02 09:21:38;;;;;;;12.25;11.75;;;;;;;;;;5410929;26;20004;-71
2024/05/02 09:24:04;;;;;;;12.23;11.73;;;;;;;;;;5406762;26;19999;-71
2024/05/02 09:26:30;;;;;;;12.30;11.80;;;;;;;;;;5412385;26;20022;-72
2024/05/02 09:29:08;;;;;;;12.10;11.60;;;;;;;;;;5412922;26;20471;-70
2024/05/02 09:31:34;;;;;;;12.48;11.90;;;;;;;;;;5401052;26;19995;-71
2024/05/02 09:34:00;;;;;;;12.30;11.80;;;;;;;;;;5412776;26;20641;-71
2024/05/02 09:36:26;;;;;;;12.60;12.00;;;;;;;;;;5412908;26;20008;-72
2024/05/02 09:39:10;;;;;;;12.80;12.20;;;;;;;;;;5408891;26;20014;-70
2024/05/02 09:41:36;;;;;;;;;;;;;;;;;;5396692;26;20015;-70
2024/05/02 09:44:06;;;;;;;12.70;12.10;;;;;;;;;;5412712;26;20373;-71
2024/05/02 09:46:33;;;;;;;12.60;12.00;;;;;;;;;;5412980;26;20052;-71
2024/05/02 09:48:59;;;;;;;12.68;12.07;;;;;;;;;;5386675;26;20023;-71
2024/05/02 09:51:25;;;;;;;12.75;12.15;;;;;;;;;;5412863;26;20014;-70
2024/05/02 09:53:51;;;;;;;12.73;12.13;;;;;;;;;;5388923;26;20022;-70
2024/05/02 09:56:16;;;;;;;12.48;11.90;;;;;;;;;;5385564;26;20003;-71
2024/05/02 09:58:42;;;;;;;12.60;12.00;;;;;;;;;;5394902;26;20008;-71
2024/05/02 10:01:07;;;;;;;12.68;12.07;;;;;;;;;;5412188;26;20476;-71
2024/05/02 10:03:33;;;;;;;12.50;11.90;;;;;;;;;;5384042;26;20014;-72
2024/05/02 10:05:59;;;;;;;12.60;12.00;;;;;;;;;;5397149;26;20004;-71
2024/05/02 10:08:32;;;;;;;12.65;12.05;;;;;;;;;;5404140;26;20003;-71
2024/05/02 10:11:11;;;;;;;12.57;11.97;;;;;;;;;;5415454;26;19999;-71
2024/05/02 10:13:36;;;;;;;12.90;12.30;;;;;;;;;;5411023;26;20015;-71
2024/05/02 10:16:06;;;;;;;12.70;12.10;;;;;;;;;;5414834;26;20473;-71
2024/05/02 10:18:32;;;;;;;13.20;12.60;;;;;;;;;;5383023;26;20043;-71
2024/05/02 10:20:58;;;;;;;12.82;12.23;;;;;;;;;;5384275;26;20488;-71
2024/05/02 10:23:27;;;;;;;12.70;12.10;;;;;;;;;;5404104;26;20004;-71
2024/05/02 10:25:56;;;;;;;12.50;11.90;;;;;;;;;;5415463;26;20010;-71
2024/05/02 10:28:26;;;;;;;12.30;11.77;;;;;;;;;;5415993;26;20041;-74
2024/05/02 10:31:01;;;;;;;12.57;11.98;;;;;;;;;;5409223;26;20472;-72
2024/05/02 10:33:28;;;;;;;12.40;11.90;;;;;;;;;;5416135;26;20000;-71
2024/05/02 10:35:54;;;;;;;12.55;11.95;;;;;;;;;;5384088;26;20348;-71
2024/05/02 10:38:21;;;;;;;12.60;12.00;;;;;;;;;;5415087;26;20003;-71
2024/05/02 10:40:47;;;;;;;12.50;11.90;;;;;;;;;;5390267;26;20015;-70
2024/05/02 10:43:14;;;;;;;12.63;12.02;;;;;;;;;;5415757;26;20804;-71
2024/05/02 10:45:41;;;;;;;12.40;11.90;;;;;;;;;;5387660;26;19996;-71
2024/05/02 10:48:07;;;;;;;12.27;11.77;;;;;;;;;;5429148;26;20015;-71
2024/05/02 10:50:36;;;;;;;12.30;11.80;;;;;;;;;;5380585;26;20543;-72
2024/05/02 10:53:02;;;;;;;12.60;12.00;;;;;;;;;;5415259;26;20519;-70
2024/05/02 10:55:28;;;;;;;12.35;11.85;;;;;;;;;;5415085;26;20039;-70
2024/05/02 10:57:53;;;;;;;12.60;12.00;;;;;;;;;;5414827;26;20010;-70
2024/05/02 11:00:19;;;;;;;12.18;11.68;;;;;;;;;;5408526;26;20015;-70
2024/05/02 11:02:49;;;;;;;12.57;11.98;;;;;;;;;;5394990;26;20000;-70
2024/05/02 11:05:15;;;;;;;12.68;12.07;;;;;;;;;;5403741;26;20018;-70
2024/05/02 11:07:40;;;;;;;12.25;11.75;;;;;;;;;;5384613;26;20001;-70
2024/05/02 11:10:12;;;;;;;12.05;11.55;;;;;;;;;;5415380;26;20384;-70
2024/05/02 11:12:37;;;;;;;12.15;11.65;;;;;;;;;;5427950;26;19996;-71
2024/05/02 11:15:04;;;;;;;12.38;11.85;;;;;;;;;;5383741;26;20011;-71
2024/05/02 11:17:31;;;;;;;12.32;11.82;;;;;;;;;;5414681;26;20484;-69
2024/05/02 11:19:59;;;;;;;12.27;11.77;;;;;;;;;;5436447;26;20136;-70
2024/05/02 11:22:25;;;;;;;12.57;11.98;;;;;;;;;;5414270;26;20004;-69
2024/05/02 11:24:54;;;;;;;12.30;11.80;;;;;;;;;;5383250;26;20621;-71
2024/05/02 11:27:20;;;;;;;11.95;11.45;;;;;;;;;;5382930;26;20080;-70
2024/05/02 11:29:45;;;;;;;12.20;11.70;;;;;;;;;;5414086;26;20043;-69
2024/05/02 11:32:11;;;;;;;12.20;11.70;;;;;;;;;;5406686;26;20008;-71
2024/05/02 11:34:36;;;;;;;12.13;11.63;;;;;;;;;;5360405;26;20010;-70
2024/05/02 11:37:02;;;;;;;12.20;11.70;;;;;;;;;;5423175;26;19995;-71
2024/05/02 11:39:27;;;;;;;12.13;11.63;;;;;;;;;;5413711;26;19999;-71
2024/05/02 11:41:53;;;;;;;12.57;11.98;;;;;;;;;;5402266;26;20504;-71
2024/05/02 11:44:18;;;;;;;12.15;11.65;;;;;;;;;;5376283;26;20003;-71
2024/05/02 11:46:44;;;;;;;12.30;11.80;;;;;;;;;;5407451;26;20422;-71
2024/05/02 11:49:11;;;;;;;12.15;11.65;;;;;;;;;;5414465;26;19991;-70
2024/05/02 11:51:37;;;;;;;12.35;11.82;;;;;;;;;;5414407;26;20003;-71
2024/05/02 11:54:02;;;;;;;12.48;11.90;;;;;;;;;;5405138;26;20353;-71
2024/05/02 11:56:28;;;;;;;12.50;11.90;;;;;;;;;;5420834;26;20463;-72
2024/05/02 11:58:54;;;;;;;12.40;11.88;;;;;;;;;;5414623;26;20019;-71
2024/05/02 12:01:20;;;;;;;12.18;11.68;;;;;;;;;;5383360;26;20154;-72
2024/05/02 12:03:45;;;;;;;12.10;11.60;;;;;;;;;;5414298;26;20007;-71
2024/05/02 12:06:12;;;;;;;12.30;11.80;;;;;;;;;;5414219;26;20000;-71
2024/05/02 12:08:37;;;;;;;12.10;11.60;;;;;;;;;;5414346;26;20460;-71
2024/05/02 12:11:03;;;;;;;12.13;11.63;;;;;;;;;;5423577;26;20074;-70
2024/05/02 12:13:28;;;;;;;12.60;12.00;;;;;;;;;;5414234;26;20013;-71
2024/05/02 12:15:54;;;;;;;12.18;11.68;;;;;;;;;;5406705;26;20011;-70
2024/05/02 12:18:20;;;;;;;12.20;11.70;;;;;;;;;;5384785;26;20460;-72
2024/05/02 12:20:45;;;;;;;12.70;12.10;;;;;;;;;;5377197;26;20011;-71
2024/05/02 12:23:11;;;;;;;12.35;11.85;;;;;;;;;;5415484;26;20468;-71
2024/05/02 12:25:37;;;;;;;12.57;11.98;;;;;;;;;;5414275;26;20000;-71
2024/05/02 12:28:03;;;;;;;12.68;12.07;;;;;;;;;;5384125;26;20000;-70
2024/05/02 12:30:29;;;;;;;12.00;11.50;;;;;;;;;;5412835;26;20509;-71
2024/05/02 12:32:55;;;;;;;12.35;11.82;;;;;;;;;;5412957;26;20003;-70
2024/05/02 12:35:21;;;;;;;12.20;11.70;;;;;;;;;;5413779;26;20031;-71
2024/05/02 12:37:46;;;;;;;12.20;11.70;;;;;;;;;;5412718;26;20358;-70
2024/05/02 12:40:13;;;;;;;12.13;11.63;;;;;;;;;;5413896;26;20000;-71
2024/05/02 12:42:38;;;;;;;12.35;11.82;;;;;;;;;;5413696;26;20023;-71
2024/05/02 12:45:04;;;;;;;12.13;11.63;;;;;;;;;;5415037;26;20003;-70
2024/05/02 12:47:29;;;;;;;12.20;11.70;;;;;;;;;;5412107;26;20014;-70
2024/05/02 12:49:56;;;;;;;12.10;11.60;;;;;;;;;;5402462;26;20076;-70
2024/05/02 12:52:21;;;;;;;12.35;11.85;;;;;;;;;;5382220;26;20049;-69
2024/05/02 12:54:47;;;;;;;12.02;11.52;;;;;;;;;;5413676;26;20003;-70
2024/05/02 12:57:12;;;;;;;12.20;11.70;;;;;;;;;;5398106;26;20073;-71
2024/05/02 12:59:37;;;;;;;12.20;11.70;;;;;;;;;;5411727;26;20082;-71
2024/05/02 13:02:03;;;;;;;12.05;11.55;;;;;;;;;;5413936;26;20304;-71
2024/05/02 13:04:29;;;;;;;12.20;11.70;;;;;;;;;;5413377;26;20032;-71
2024/05/02 13:06:56;;;;;;;12.07;11.57;;;;;;;;;;5381978;26;20015;-71
2024/05/02 13:09:21;;;;;;;12.30;11.80;;;;;;;;;;5413284;26;20004;-70
2024/05/02 13:11:47;;;;;;;12.00;11.50;;;;;;;;;;5374509;26;20389;-71
2024/05/02 13:14:13;;;;;;;12.27;11.77;;;;;;;;;;5404114;26;19995;-71
2024/05/02 13:16:39;;;;;;;12.25;11.75;;;;;;;;;;5408376;26;20075;-70
2024/05/02 13:19:04;;;;;;;12.35;11.85;;;;;;;;;;5415563;26;20696;-71
2024/05/02 13:21:29;;;;;;;12.02;11.52;;;;;;;;;;5412599;26;19996;-71
2024/05/02 13:23:55;;;;;;;12.13;11.63;;;;;;;;;;5412386;26;20338;-71
2024/05/02 13:26:21;;;;;;;11.98;11.48;;;;;;;;;;5412920;26;20004;-71
2024/05/02 13:28:46;;;;;;;12.35;11.75;;;;;;;;;;5412933;26;19995;-70
2024/05/02 13:31:12;;;;;;;12.50;11.93;;;;;;;;;;5380882;26;20434;-70
2024/05/02 13:33:40;;;;;;;12.27;11.77;;;;;;;;;;5381792;26;20038;-71
2024/05/02 13:36:06;;;;;;;12.05;11.55;;;;;;;;;;5409201;26;20004;-72
2024/05/02 13:38:31;;;;;;;12.40;11.85;;;;;;;;;;5407377;26;20479;-70
2024/05/02 13:40:56;;;;;;;12.27;11.77;;;;;;;;;;5411128;26;19996;-71
2024/05/02 13:43:22;;;;;;;12.38;11.88;;;;;;;;;;5400673;26;20040;-70
2024/05/02 13:45:49;;;;;;;12.30;11.80;;;;;;;;;;5421823;26;20003;-71
2024/05/02 13:48:15;;;;;;;12.18;11.68;;;;;;;;;;5424730;26;20035;-69
2024/05/02 13:50:40;;;;;;;12.57;11.98;;;;;;;;;;5415965;26;20000;-71
2024/05/02 13:53:06;;;;;;;12.73;12.13;;;;;;;;;;5421792;26;20028;-71
2024/05/02 13:55:31;;;;;;;12.13;11.63;;;;;;;;;;5412110;26;19996;-70
2024/05/02 13:57:57;;;;;;;12.20;11.70;;;;;;;;;;5415335;26;20006;-70
2024/05/02 14:00:22;;;;;;;12.15;11.65;;;;;;;;;;5415222;26;20004;-70
2024/05/02 14:02:47;;;;;;;12.25;11.75;;;;;;;;;;5415860;26;20006;-70
2024/05/02 14:05:13;;;;;;;12.32;11.80;;;;;;;;;;5416727;26;20007;-70
2024/05/02 14:07:38;;;;;;;12.38;11.88;;;;;;;;;;5397598;26;20138;-70
2024/05/02 14:10:04;;;;;;;12.55;11.95;;;;;;;;;;5415450;26;20006;-70